Time;durP1;ratioP1;P1;durP2;ratioP2;P2;SDS_P1;SDS_P2;PMS_P1;PMS_P2;Temp;Humidity;BMP_temperature;BMP_pressure;BME280_temperature;BME280_humidity;BME280_pressure;Samples;Min_cycle;Max_cycle;Signal;HPM_P1;HPM_P2
2022/07/24 00:00:56;;;;;;;17.40;14.90;;;;;;;19.43;95.30;100214.16;130293;1268;108862;-73
2022/07/24 00:04:01;;;;;;;18.80;13.70;;;;;;;19.41;95.47;100214.46;130306;1268;108731;-73
2022/07/24 00:07:07;;;;;;;19.00;14.90;;;;;;;19.38;96.18;100214.73;130262;1268;108867;-73
2022/07/24 00:10:13;;;;;;;17.40;14.20;;;;;;;19.35;96.84;100217.34;130247;1268;108846;-73
2022/07/24 00:13:18;;;;;;;18.30;13.90;;;;;;;19.32;96.42;100219.11;130244;1268;109798;-70
2022/07/24 00:16:23;;;;;;;18.10;15.10;;;;;;;19.34;95.69;100216.98;130084;1268;108740;-70
2022/07/24 00:19:29;;;;;;;19.80;15.30;;;;;;;19.34;96.38;100220.91;130148;1267;109410;-71
2022/07/24 00:22:34;;;;;;;18.60;14.60;;;;;;;19.32;97.31;100218.70;130296;1268;107765;-72
2022/07/24 00:25:39;;;;;;;16.40;14.10;;;;;;;19.29;96.13;100223.36;130266;1268;108629;-71
2022/07/24 00:28:45;;;;;;;15.30;12.50;;;;;;;19.28;96.24;100226.07;130195;1268;107725;-72
2022/07/24 00:31:50;;;;;;;15.40;13.70;;;;;;;19.26;95.76;100223.29;130244;1268;108854;-70
2022/07/24 00:34:56;;;;;;;17.80;14.10;;;;;;;19.26;96.09;100228.91;130228;1268;108726;-72
2022/07/24 00:38:01;;;;;;;17.10;13.50;;;;;;;19.19;96.56;100222.43;130230;1267;108643;-70
2022/07/24 00:41:06;;;;;;;16.40;13.60;;;;;;;19.15;96.32;100229.16;130214;1268;109072;-73
2022/07/24 00:44:15;;;;;;;18.80;13.30;;;;;;;19.13;96.70;100231.37;130269;1268;108821;-73
2022/07/24 00:47:20;;;;;;;18.60;13.50;;;;;;;19.11;95.99;100232.45;130302;1268;108798;-72
2022/07/24 00:50:27;;;;;;;16.40;13.40;;;;;;;19.13;96.60;100232.95;130247;1267;109339;-73
2022/07/24 00:53:33;;;;;;;16.30;13.80;;;;;;;19.14;96.30;100235.70;130241;1268;109152;-72
2022/07/24 00:56:39;;;;;;;16.40;13.20;;;;;;;19.14;96.30;100240.73;130200;1268;108729;-72
2022/07/24 00:59:44;;;;;;;15.00;12.60;;;;;;;19.13;96.47;100244.81;130259;1268;107478;-71
2022/07/24 01:02:50;;;;;;;15.70;11.70;;;;;;;19.08;96.49;100247.66;130221;1267;108194;-71
2022/07/24 01:05:56;;;;;;;15.50;13.00;;;;;;;19.06;96.67;100255.34;130290;1268;108881;-71
2022/07/24 01:09:01;;;;;;;15.20;12.70;;;;;;;19.03;95.98;100254.98;130277;1268;108713;-71
2022/07/24 01:12:08;;;;;;;15.00;12.50;;;;;;;19.00;96.43;100255.39;130257;1268;108855;-72
2022/07/24 01:15:14;;;;;;;14.40;11.30;;;;;;;18.93;95.60;100259.97;130247;1268;108986;-71
2022/07/24 01:18:20;;;;;;;12.70;10.80;;;;;;;18.88;95.31;100261.38;130231;1268;108755;-71
2022/07/24 01:21:26;;;;;;;17.10;11.90;;;;;;;18.84;95.33;100262.29;130317;1268;109806;-70
2022/07/24 01:24:31;;;;;;;16.30;11.50;;;;;;;18.77;95.03;100267.84;130272;1268;108823;-70
2022/07/24 01:27:37;;;;;;;13.30;10.30;;;;;;;18.71;94.81;100269.90;130073;1268;109578;-72
2022/07/24 01:30:42;;;;;;;13.10;8.90;;;;;;;18.64;94.69;100271.39;130240;1268;108965;-70
2022/07/24 01:33:48;;;;;;;9.10;6.90;;;;;;;18.55;93.01;100279.65;130080;1268;109479;-70
2022/07/24 01:36:53;;;;;;;7.70;6.90;;;;;;;18.44;92.05;100282.73;130188;1268;108321;-70
2022/07/24 01:39:59;;;;;;;7.60;6.80;;;;;;;18.32;91.44;100288.27;130018;1270;108150;-70
2022/07/24 01:43:04;;;;;;;10.60;6.20;;;;;;;18.20;91.17;100292.79;130078;1268;108951;-70
2022/07/24 01:46:11;;;;;;;8.60;6.40;;;;;;;18.06;91.31;100295.38;130122;1268;108790;-69
2022/07/24 01:49:17;;;;;;;8.30;6.70;;;;;;;17.96;91.63;100298.36;130106;1268;108769;-70
2022/07/24 01:52:24;;;;;;;10.10;7.20;;;;;;;17.91;91.88;100294.80;130072;1268;108869;-69
2022/07/24 01:55:31;;;;;;;8.40;6.40;;;;;;;17.85;92.03;100295.69;129966;1268;110319;-71
2022/07/24 01:58:39;;;;;;;9.30;6.90;;;;;;;17.80;92.07;100298.80;130064;1268;107195;-71
2022/07/24 02:01:44;;;;;;;11.30;7.00;;;;;;;17.75;92.24;100295.31;130263;1267;108503;-71
2022/07/24 02:04:50;;;;;;;8.80;6.60;;;;;;;17.68;91.94;100297.77;130218;1268;108825;-71
2022/07/24 02:07:59;;;;;;;7.30;5.80;;;;;;;17.59;91.92;100296.84;130247;1268;108999;-70
2022/07/24 02:11:05;;;;;;;7.30;5.50;;;;;;;17.51;91.80;100296.65;130277;1268;109007;-71
2022/07/24 02:14:10;;;;;;;8.10;5.80;;;;;;;17.44;91.66;100300.05;130305;1267;108581;-72
2022/07/24 02:17:16;;;;;;;8.10;6.30;;;;;;;17.35;91.61;100301.79;130245;1268;108923;-73
2022/07/24 02:20:22;;;;;;;7.30;5.80;;;;;;;17.24;91.52;100299.16;130228;1268;108760;-72
2022/07/24 02:23:27;;;;;;;7.70;5.50;;;;;;;17.14;91.78;100302.08;130198;1268;108717;-72
2022/07/24 02:26:33;;;;;;;7.60;5.90;;;;;;;17.07;91.47;100302.64;130211;1268;108863;-72
2022/07/24 02:29:39;;;;;;;8.50;6.10;;;;;;;16.99;91.45;100299.46;130254;1268;108966;-71
2022/07/24 02:32:44;;;;;;;8.00;5.70;;;;;;;16.93;91.46;100296.70;130200;1268;108961;-72
2022/07/24 02:35:50;;;;;;;8.60;5.80;;;;;;;16.84;91.61;100294.46;130178;1268;108868;-71
2022/07/24 02:38:55;;;;;;;8.50;6.10;;;;;;;16.78;91.83;100292.73;130241;1268;108759;-71
2022/07/24 02:42:00;;;;;;;7.90;6.40;;;;;;;16.72;91.54;100292.71;130197;1268;108644;-71
2022/07/24 02:45:08;;;;;;;10.40;5.50;;;;;;;16.67;91.78;100288.93;130190;1268;108599;-72
2022/07/24 02:48:13;;;;;;;7.50;5.50;;;;;;;16.61;91.60;100283.93;130298;1268;109257;-72
2022/07/24 02:51:19;;;;;;;8.40;6.10;;;;;;;16.59;91.55;100285.38;130285;1268;108850;-71
2022/07/24 02:54:24;;;;;;;6.80;6.10;;;;;;;16.62;91.55;100293.10;130260;1268;108819;-71
2022/07/24 02:57:30;;;;;;;9.90;6.40;;;;;;;16.59;91.34;100291.16;130211;1268;107010;-71
2022/07/24 03:00:35;;;;;;;7.30;5.30;;;;;;;16.55;91.61;100304.27;130290;1268;108961;-71
2022/07/24 03:03:40;;;;;;;8.70;5.40;;;;;;;16.50;91.38;100303.63;130281;1267;108993;-71
2022/07/24 03:06:46;;;;;;;7.00;5.30;;;;;;;16.43;91.38;100311.80;130280;1268;108707;-71
2022/07/24 03:09:51;;;;;;;7.80;5.50;;;;;;;16.37;91.57;100311.08;130184;1268;108996;-71
2022/07/24 03:12:56;;;;;;;6.60;4.80;;;;;;;16.32;91.63;100311.04;130235;1268;108745;-70
2022/07/24 03:16:02;;;;;;;7.20;4.50;;;;;;;16.25;91.65;100303.10;130137;1268;108841;-69
2022/07/24 03:19:07;;;;;;;7.60;4.40;;;;;;;16.21;91.55;100309.10;130102;1267;109520;-69
2022/07/24 03:22:13;;;;;;;6.70;5.20;;;;;;;16.20;91.54;100311.45;130095;1267;108915;-70
2022/07/24 03:25:19;;;;;;;5.70;4.70;;;;;;;16.18;91.46;100310.77;130083;1267;108915;-70
2022/07/24 03:28:25;;;;;;;4.90;4.40;;;;;;;16.17;91.48;100314.48;130127;1267;108983;-70
2022/07/24 03:31:30;;;;;;;6.90;4.50;;;;;;;16.18;91.49;100320.45;130136;1267;108029;-70
2022/07/24 03:34:35;;;;;;;7.10;4.50;;;;;;;16.19;91.47;100321.59;130132;1268;108811;-69
2022/07/24 03:37:41;;;;;;;5.40;4.20;;;;;;;16.18;91.44;100324.27;130126;1268;108663;-72
2022/07/24 03:40:47;;;;;;;6.60;4.00;;;;;;;16.15;91.51;100329.67;130193;1268;107121;-68
2022/07/24 03:43:52;;;;;;;5.90;3.40;;;;;;;16.18;91.41;100330.65;130052;1267;109016;-70
2022/07/24 03:46:57;;;;;;;5.40;3.90;;;;;;;16.29;91.22;100334.55;130056;1271;109623;-69
2022/07/24 03:50:04;;;;;;;5.00;3.50;;;;;;;16.39;91.28;100337.63;130082;1271;107746;-68
2022/07/24 03:53:09;;;;;;;5.60;3.90;;;;;;;16.50;91.01;100339.39;130064;1271;107305;-69
2022/07/24 03:56:15;;;;;;;8.10;3.50;;;;;;;16.60;91.00;100344.70;130047;1269;108789;-69
2022/07/24 03:59:21;;;;;;;5.00;3.70;;;;;;;16.70;90.45;100348.52;130030;1270;108347;-69
2022/07/24 04:02:26;;;;;;;5.40;3.60;;;;;;;16.82;90.37;100347.25;130166;1270;107752;-69
2022/07/24 04:05:31;;;;;;;5.20;3.30;;;;;;;16.99;90.08;100345.31;130113;1270;108831;-70
2022/07/24 04:08:37;;;;;;;4.20;3.60;;;;;;;17.11;89.78;100352.11;130365;1268;108794;-69
2022/07/24 04:11:44;;;;;;;4.20;3.20;;;;;;;17.23;89.27;100357.95;129953;1270;108769;-70
2022/07/24 04:14:49;;;;;;;8.60;3.00;;;;;;;17.35;89.20;100355.05;130167;1268;108605;-71
2022/07/24 04:17:55;;;;;;;5.80;3.20;;;;;;;17.42;88.50;100355.86;130080;1270;108647;-72
2022/07/24 04:21:00;;;;;;;6.80;3.30;;;;;;;17.52;88.14;100358.27;130162;1270;108811;-70
2022/07/24 04:24:06;;;;;;;5.10;3.00;;;;;;;17.58;87.91;100358.34;130095;1270;108729;-70
2022/07/24 04:27:11;;;;;;;6.20;2.80;;;;;;;17.73;88.60;100355.73;130070;1270;108801;-72
2022/07/24 04:30:17;;;;;;;4.00;2.60;;;;;;;17.96;88.35;100360.09;130142;1270;108784;-71
2022/07/24 04:33:22;;;;;;;5.20;3.00;;;;;;;18.23;88.22;100365.12;130196;1270;109021;-69
2022/07/24 04:36:28;;;;;;;5.50;3.30;;;;;;;18.38;86.98;100369.77;130083;1270;107410;-71
2022/07/24 04:39:33;;;;;;;5.80;3.20;;;;;;;18.48;87.15;100372.83;129990;1271;108745;-71
2022/07/24 04:42:38;;;;;;;7.60;3.50;;;;;;;18.59;87.06;100374.86;130189;1268;107975;-72
2022/07/24 04:45:44;;;;;;;6.40;3.00;;;;;;;18.81;87.39;100372.98;130228;1267;108674;-77
2022/07/24 04:48:49;;;;;;;4.80;3.20;;;;;;;19.11;87.51;100371.14;130259;1267;108638;-71
2022/07/24 04:51:55;;;;;;;5.00;3.90;;;;;;;19.34;85.81;100366.41;130250;1267;108874;-71
2022/07/24 04:55:00;;;;;;;4.40;3.20;;;;;;;19.21;84.48;100375.73;130247;1267;108828;-71
2022/07/24 04:58:06;;;;;;;4.60;3.30;;;;;;;19.24;86.07;100371.73;130240;1267;108727;-71
2022/07/24 05:01:11;;;;;;;3.60;2.70;;;;;;;19.42;85.35;100375.08;130245;1268;108729;-71
2022/07/24 05:04:17;;;;;;;5.60;3.40;;;;;;;19.58;85.56;100377.02;130251;1268;109618;-70
2022/07/24 05:07:22;;;;;;;4.70;3.40;;;;;;;19.58;83.58;100377.77;130152;1267;110195;-70
2022/07/24 05:10:28;;;;;;;4.70;4.10;;;;;;;19.55;84.49;100382.10;130175;1267;108854;-77
2022/07/24 05:13:33;;;;;;;7.10;3.70;;;;;;;19.59;83.16;100384.94;130222;1268;108731;-73
2022/07/24 05:16:39;;;;;;;5.10;3.00;;;;;;;19.28;80.68;100385.98;130243;1268;108642;-73
2022/07/24 05:19:44;;;;;;;5.70;3.50;;;;;;;19.15;82.86;100390.98;130208;1268;108718;-72
2022/07/24 05:22:50;;;;;;;4.80;2.80;;;;;;;19.44;83.54;100388.39;130243;1268;108712;-72
2022/07/24 05:25:55;;;;;;;5.10;2.60;;;;;;;19.73;82.52;100392.36;130214;1268;108733;-72
2022/07/24 05:29:02;;;;;;;5.10;2.40;;;;;;;19.70;79.32;100395.69;130173;1268;108785;-73
2022/07/24 05:32:08;;;;;;;2.70;2.20;;;;;;;19.57;79.35;100394.69;130221;1268;108835;-72
2022/07/24 05:35:14;;;;;;;4.60;1.60;;;;;;;19.50;77.18;100395.68;130215;1268;108715;-72
2022/07/24 05:38:19;;;;;;;3.50;2.20;;;;;;;19.32;77.27;100398.96;130199;1268;109262;-73
2022/07/24 05:41:24;;;;;;;3.50;2.10;;;;;;;19.39;77.33;100395.77;130236;1268;108961;-72
2022/07/24 05:44:30;;;;;;;3.10;2.40;;;;;;;19.37;76.71;100398.52;130290;1268;107875;-72
2022/07/24 05:47:41;;;;;;;3.50;2.10;;;;;;;19.27;77.02;100399.67;130218;1268;108776;-72
2022/07/24 05:50:46;;;;;;;3.90;2.00;;;;;;;19.27;77.58;100398.22;130242;1268;108753;-72
2022/07/24 05:53:51;;;;;;;3.40;2.40;;;;;;;19.23;76.31;100399.88;130205;1268;109018;-72
2022/07/24 05:56:57;;;;;;;5.50;2.50;;;;;;;19.32;77.78;100405.59;130246;1268;109015;-72
2022/07/24 06:00:03;;;;;;;4.30;2.20;;;;;;;19.31;75.44;100409.08;130191;1268;108701;-72
2022/07/24 06:03:17;;;;;;;6.40;2.50;;;;;;;19.21;76.12;100407.36;130295;1268;108901;-72
2022/07/24 06:06:22;;;;;;;3.00;1.90;;;;;;;19.28;76.42;100407.33;130478;1268;108847;-72
2022/07/24 06:09:28;;;;;;;3.20;1.90;;;;;;;19.35;76.64;100403.67;130229;1268;108726;-73
2022/07/24 06:12:33;;;;;;;5.10;2.10;;;;;;;19.45;76.09;100403.17;130216;1267;108900;-73
2022/07/24 06:15:39;;;;;;;7.20;2.20;;;;;;;19.46;76.79;100402.46;130188;1268;108863;-74
2022/07/24 06:18:44;;;;;;;3.30;2.10;;;;;;;19.55;76.03;100403.85;130220;1268;108642;-75
2022/07/24 06:21:49;;;;;;;3.70;2.40;;;;;;;19.62;75.67;100404.70;130190;1268;108853;-76
2022/07/24 06:24:55;;;;;;;3.60;2.20;;;;;;;19.85;77.14;100406.36;130210;1268;108954;-75
2022/07/24 06:28:00;;;;;;;3.90;1.90;;;;;;;20.02;74.67;100412.95;130341;1268;109004;-75
2022/07/24 06:31:05;;;;;;;2.90;1.90;;;;;;;19.87;72.18;100414.10;130281;1268;108875;-74
2022/07/24 06:34:11;;;;;;;2.60;1.90;;;;;;;19.72;73.52;100412.76;130293;1268;108841;-75
2022/07/24 06:37:16;;;;;;;4.20;2.20;;;;;;;19.88;73.17;100422.85;130249;1271;108858;-75
2022/07/24 06:40:22;;;;;;;2.50;1.90;;;;;;;19.89;74.88;100422.72;130248;1268;108820;-75
2022/07/24 06:43:27;;;;;;;4.00;1.90;;;;;;;20.11;73.90;100423.02;130254;1268;108125;-75
2022/07/24 06:46:33;;;;;;;2.80;1.70;;;;;;;20.15;72.33;100423.81;130238;1268;108811;-75
2022/07/24 06:49:38;;;;;;;2.20;2.00;;;;;;;19.97;72.78;100425.74;130285;1268;108724;-72
2022/07/24 06:52:45;;;;;;;3.20;2.00;;;;;;;19.86;71.81;100431.40;130270;1268;108755;-73
2022/07/24 06:55:53;;;;;;;3.10;1.80;;;;;;;19.67;71.40;100427.84;130290;1268;108938;-76
2022/07/24 06:58:59;;;;;;;2.70;1.70;;;;;;;19.81;74.14;100424.84;130261;1268;108159;-74
2022/07/24 07:02:05;;;;;;;2.80;1.70;;;;;;;19.99;71.04;100428.98;130285;1268;108805;-71
2022/07/24 07:05:11;;;;;;;3.90;2.50;;;;;;;19.67;69.64;100424.30;130313;1268;108637;-72
2022/07/24 07:08:16;;;;;;;3.10;1.80;;;;;;;19.52;69.30;100429.98;130592;1268;108362;-74
2022/07/24 07:11:21;;;;;;;2.60;1.60;;;;;;;19.35;68.26;100431.60;130227;1268;108858;-74
2022/07/24 07:14:27;;;;;;;2.10;1.10;;;;;;;19.32;69.48;100429.73;130326;1268;108811;-72
2022/07/24 07:17:33;;;;;;;3.60;1.30;;;;;;;19.33;68.79;100432.77;130292;1268;108851;-72
2022/07/24 07:20:38;;;;;;;2.60;1.80;;;;;;;19.39;70.89;100430.87;130289;1268;108979;-72
2022/07/24 07:23:44;;;;;;;2.40;1.40;;;;;;;19.57;71.39;100425.28;130059;1271;107741;-73
2022/07/24 07:26:49;;;;;;;4.10;1.50;;;;;;;19.72;69.77;100434.09;130426;1267;108879;-79
2022/07/24 07:29:55;;;;;;;4.00;1.60;;;;;;;19.67;68.66;100439.04;130356;1268;109352;-81
2022/07/24 07:33:00;;;;;;;3.20;1.50;;;;;;;19.63;67.05;100447.39;130380;1268;108725;-81
2022/07/24 07:36:06;;;;;;;3.20;2.00;;;;;;;19.53;68.50;100446.36;130392;1268;108858;-78
2022/07/24 07:39:12;;;;;;;3.50;1.70;;;;;;;19.60;68.99;100443.02;130388;1268;108904;-82
2022/07/24 07:42:17;;;;;;;3.30;1.90;;;;;;;19.57;68.86;100442.04;130341;1268;108918;-72
2022/07/24 07:45:22;;;;;;;2.50;1.70;;;;;;;19.52;67.41;100447.30;130206;1268;108858;-73
2022/07/24 07:48:29;;;;;;;3.70;1.40;;;;;;;19.58;67.15;100451.44;130299;1268;108717;-74
2022/07/24 07:51:34;;;;;;;2.50;1.20;;;;;;;19.51;66.26;100446.10;130303;1268;107652;-71
2022/07/24 07:54:39;;;;;;;2.80;1.50;;;;;;;19.50;66.36;100444.52;130258;1268;108878;-73
2022/07/24 07:57:45;;;;;;;2.20;1.30;;;;;;;19.62;66.52;100444.73;130322;1268;109280;-71
2022/07/24 08:00:50;;;;;;;2.00;1.40;;;;;;;19.79;65.68;100449.31;130237;1268;108998;-73
2022/07/24 08:03:55;;;;;;;1.90;1.10;;;;;;;19.77;65.31;100447.23;130238;1268;108875;-79
2022/07/24 08:07:01;;;;;;;5.30;1.40;;;;;;;19.82;65.93;100446.42;130258;1268;108856;-78
2022/07/24 08:10:08;;;;;;;2.80;1.30;;;;;;;19.88;64.28;100456.10;130326;1268;108588;-77
2022/07/24 08:13:14;;;;;;;3.00;1.80;;;;;;;19.95;63.85;100448.75;130353;1268;107756;-72
2022/07/24 08:16:20;;;;;;;2.20;1.40;;;;;;;20.03;62.74;100459.25;130286;1268;109706;-76
2022/07/24 08:19:25;;;;;;;2.10;1.30;;;;;;;19.91;63.11;100456.34;130260;1268;109078;-72
2022/07/24 08:22:31;;;;;;;1.70;1.20;;;;;;;19.94;64.00;100456.55;130177;1268;108612;-73
2022/07/24 08:25:36;;;;;;;3.00;1.50;;;;;;;20.10;64.11;100460.79;130196;1268;108800;-71
2022/07/24 08:28:42;;;;;;;2.20;1.30;;;;;;;19.93;62.31;100471.38;130383;1268;108733;-72
2022/07/24 08:31:47;;;;;;;3.00;1.40;;;;;;;19.94;63.20;100466.46;130211;1268;109201;-77
2022/07/24 08:34:52;;;;;;;2.20;1.50;;;;;;;20.08;62.59;100465.83;130227;1268;108780;-71
2022/07/24 08:37:58;;;;;;;2.10;1.40;;;;;;;20.19;62.10;100471.14;130253;1268;108697;-70
2022/07/24 08:41:04;;;;;;;2.60;1.30;;;;;;;20.18;61.32;100485.23;130254;1268;108890;-71
2022/07/24 08:44:10;;;;;;;1.70;1.10;;;;;;;20.15;62.89;100477.31;130322;1268;109054;-71
2022/07/24 08:47:17;;;;;;;1.80;1.20;;;;;;;20.31;62.43;100477.83;130274;1268;109177;-71
2022/07/24 08:50:22;;;;;;;2.20;1.40;;;;;;;20.44;63.11;100473.63;130314;1268;108862;-71
2022/07/24 08:53:28;;;;;;;1.70;1.20;;;;;;;20.71;61.10;100469.66;130316;1268;108846;-70
2022/07/24 08:56:36;;;;;;;2.80;1.40;;;;;;;20.80;61.72;100472.29;130251;1268;108672;-71
2022/07/24 08:59:41;;;;;;;1.90;1.10;;;;;;;20.71;61.38;100479.41;130275;1268;109794;-71
2022/07/24 09:02:47;;;;;;;2.20;1.30;;;;;;;20.36;61.14;100478.41;130224;1268;109777;-72
2022/07/24 09:05:57;;;;;;;1.70;1.30;;;;;;;20.50;61.92;100474.49;130189;1268;109096;-71
2022/07/24 09:09:04;;;;;;;3.90;1.70;;;;;;;20.86;60.51;100480.69;130307;1268;110023;-71
2022/07/24 09:12:13;;;;;;;1.90;1.50;;;;;;;20.81;60.38;100479.09;130268;1268;108361;-71
2022/07/24 09:15:22;;;;;;;2.20;1.40;;;;;;;20.95;61.12;100479.70;130098;1268;108459;-71
2022/07/24 09:18:31;;;;;;;2.40;1.30;;;;;;;20.87;59.36;100478.73;130093;1268;108294;-71
2022/07/24 09:21:38;;;;;;;2.40;1.20;;;;;;;20.78;60.83;100481.64;130252;1268;108283;-72
2022/07/24 09:24:43;;;;;;;3.80;1.20;;;;;;;20.89;59.81;100480.46;130394;1268;108717;-78
2022/07/24 09:27:51;;;;;;;3.00;1.00;;;;;;;20.88;60.62;100474.55;130317;1268;108682;-76
2022/07/24 09:31:03;;;;;;;2.30;1.10;;;;;;;20.95;60.10;100480.02;130259;1268;108850;-75
2022/07/24 09:34:11;;;;;;;2.50;1.00;;;;;;;21.04;61.16;100484.85;130276;1268;108862;-77
2022/07/24 09:37:18;;;;;;;2.40;1.00;;;;;;;21.12;58.23;100489.86;130250;1268;108772;-75
2022/07/24 09:40:28;;;;;;;2.40;1.20;;;;;;;21.09;57.65;100492.55;130452;1268;108899;-72
2022/07/24 09:43:36;;;;;;;1.30;1.00;;;;;;;21.30;57.85;100484.34;130363;1268;107670;-71
2022/07/24 09:46:48;;;;;;;1.00;0.90;;;;;;;21.50;59.03;100481.64;130452;1268;108945;-72
2022/07/24 09:50:11;;;;;;;1.50;1.10;;;;;;;21.70;58.39;100498.34;130288;1268;108952;-71
2022/07/24 09:53:19;;;;;;;1.10;0.90;;;;;;;21.71;57.47;100495.11;129736;1268;759191;-72
2022/07/24 09:56:25;;;;;;;1.40;0.90;;;;;;;21.91;58.81;100486.38;130316;1268;108887;-70
2022/07/24 09:59:32;;;;;;;2.20;1.10;;;;;;;22.20;57.55;100482.56;129867;1271;108738;-86
2022/07/24 10:02:38;;;;;;;1.00;0.90;;;;;;;22.19;55.29;100491.15;130602;1268;108457;-75
2022/07/24 10:05:46;;;;;;;1.60;1.00;;;;;;;22.08;55.99;100498.44;130354;1268;108908;-70
2022/07/24 10:08:53;;;;;;;1.30;1.00;;;;;;;22.04;56.35;100504.79;130226;1268;108709;-70
2022/07/24 10:11:59;;;;;;;2.30;1.00;;;;;;;22.14;58.18;100489.33;130210;1268;109046;-71
2022/07/24 10:15:08;;;;;;;2.00;1.10;;;;;;;22.49;57.50;100491.66;130276;1268;108841;-72
2022/07/24 10:18:21;;;;;;;1.90;1.10;;;;;;;22.69;56.69;100488.04;130362;1268;108819;-76
2022/07/24 10:21:29;;;;;;;1.70;1.10;;;;;;;22.94;58.34;100486.02;130263;1268;108823;-76
2022/07/24 10:24:56;;;;;;;1.20;1.00;;;;;;;23.11;54.74;100488.30;130347;1268;109816;-71
2022/07/24 10:28:09;;;;;;;1.90;1.10;;;;;;;22.94;55.00;100488.58;130213;1268;107679;-75
2022/07/24 10:31:15;;;;;;;2.30;0.90;;;;;;;22.73;55.07;100486.29;130419;1268;109179;-73
2022/07/24 10:34:28;;;;;;;1.50;1.10;;;;;;;22.58;53.98;100492.15;130361;1267;108774;-71
2022/07/24 10:37:42;;;;;;;1.50;1.00;;;;;;;22.62;55.76;100490.38;130330;1268;108590;-76
2022/07/24 10:40:51;;;;;;;1.30;1.10;;;;;;;22.94;55.59;100486.61;130328;1268;108756;-70
2022/07/24 10:44:18;;;;;;;3.50;1.30;;;;;;;23.13;55.51;100491.95;130166;1268;108872;-76
2022/07/24 10:47:27;;;;;;;1.80;1.30;;;;;;;23.08;53.15;100500.84;130319;1268;108654;-73
2022/07/24 10:51:02;;;;;;;1.60;1.00;;;;;;;22.84;53.61;100502.86;130561;1268;109672;-70
2022/07/24 10:54:19;;;;;;;3.80;1.00;;;;;;;22.78;54.79;100500.11;130384;1267;107584;-70
2022/07/24 10:57:48;;;;;;;1.40;0.90;;;;;;;22.94;55.24;100495.70;132097;1268;109147;-70
2022/07/24 11:00:54;;;;;;;1.60;1.10;;;;;;;23.12;54.76;100495.31;130742;1268;108768;-71
2022/07/24 11:04:01;;;;;;;1.30;1.00;;;;;;;22.89;52.85;100502.33;130523;1268;108884;-70
2022/07/24 11:07:13;;;;;;;1.80;1.20;;;;;;;22.58;54.12;100504.61;130896;1268;108844;-71
2022/07/24 11:10:18;;;;;;;2.60;1.00;;;;;;;22.75;55.48;100496.42;130411;1268;108850;-71
2022/07/24 11:13:43;;;;;;;1.80;1.10;;;;;;;22.90;54.66;100500.98;130194;1268;109135;-70
2022/07/24 11:16:48;;;;;;;2.30;1.10;;;;;;;22.77;54.50;100500.76;130952;1268;106867;-69
2022/07/24 11:19:58;;;;;;;1.80;1.20;;;;;;;22.70;54.44;100497.78;130352;1268;108850;-68
2022/07/24 11:23:21;;;;;;;2.10;1.30;;;;;;;22.66;54.03;100497.25;130539;1268;108971;-71
2022/07/24 11:26:46;;;;;;;3.40;1.50;;;;;;;22.73;53.84;100497.23;130160;1268;108711;-70
2022/07/24 11:29:55;;;;;;;3.80;1.20;;;;;;;22.62;53.16;100502.95;130257;1268;108946;-69
2022/07/24 11:33:01;;;;;;;2.90;1.30;;;;;;;22.48;53.99;100504.96;130581;1268;107296;-69
2022/07/24 11:36:10;;;;;;;2.00;1.10;;;;;;;22.40;54.19;100505.60;130386;1268;108139;-71
2022/07/24 11:39:16;;;;;;;1.80;1.30;;;;;;;22.39;54.03;100499.63;130510;1268;108741;-71
2022/07/24 11:42:22;;;;;;;1.90;1.10;;;;;;;22.34;54.10;100500.27;130096;1268;109671;-71
2022/07/24 11:45:27;;;;;;;3.60;1.70;;;;;;;22.41;54.40;100501.95;130434;1268;108829;-71
2022/07/24 11:48:33;;;;;;;1.60;1.00;;;;;;;22.50;54.20;100504.15;130145;1268;109388;-71
2022/07/24 11:51:44;;;;;;;2.90;1.40;;;;;;;22.61;54.33;100503.95;130226;1268;108996;-70
2022/07/24 11:54:56;;;;;;;1.30;1.10;;;;;;;22.86;54.17;100508.18;130035;1268;108685;-70
2022/07/24 11:58:02;;;;;;;2.40;1.00;;;;;;;23.09;53.77;100506.16;130420;1268;108590;-72
2022/07/24 12:01:21;;;;;;;2.30;1.00;;;;;;;23.09;54.46;100506.17;130319;1267;109732;-71
2022/07/24 12:04:33;;;;;;;1.80;1.10;;;;;;;23.12;52.50;100510.60;130361;1267;108689;-72
2022/07/24 12:08:01;;;;;;;2.20;1.20;;;;;;;22.94;53.17;100505.87;130447;1268;108556;-73
2022/07/24 12:11:06;;;;;;;2.60;1.10;;;;;;;22.94;52.09;100510.23;130422;1268;108336;-73
2022/07/24 12:14:17;;;;;;;1.40;1.00;;;;;;;23.02;53.11;100504.27;130285;1268;108672;-70
2022/07/24 12:17:23;;;;;;;1.30;1.00;;;;;;;23.12;52.18;100510.60;130259;1268;108576;-70
2022/07/24 12:20:30;;;;;;;3.30;1.10;;;;;;;22.95;52.33;100506.39;130400;1268;108844;-73
2022/07/24 12:23:36;;;;;;;1.80;1.10;;;;;;;22.95;53.22;100504.73;130398;1268;108675;-70
2022/07/24 12:26:56;;;;;;;1.20;1.00;;;;;;;23.22;51.97;100501.39;130290;1268;109536;-70
2022/07/24 12:30:01;;;;;;;1.80;1.00;;;;;;;23.24;52.17;100494.64;130190;1266;108793;-73
2022/07/24 12:33:19;;;;;;;2.10;1.10;;;;;;;23.22;51.76;100498.27;130432;1268;108679;-72
2022/07/24 12:36:27;;;;;;;2.70;1.10;;;;;;;23.09;51.24;100505.57;130350;1268;105913;-72
2022/07/24 12:39:32;;;;;;;1.10;1.00;;;;;;;23.10;52.24;100501.08;130444;1268;109729;-71
2022/07/24 12:42:38;;;;;;;1.60;1.20;;;;;;;23.26;51.96;100496.47;130405;1268;107654;-71
2022/07/24 12:46:05;;;;;;;1.60;1.10;;;;;;;23.40;51.35;100495.55;130297;1267;108743;-73
2022/07/24 12:49:14;;;;;;;1.80;1.00;;;;;;;23.31;51.48;100500.84;130346;1268;107518;-72
2022/07/24 12:52:25;;;;;;;1.50;1.10;;;;;;;23.23;51.63;100499.08;130266;1268;107705;-71
2022/07/24 12:55:30;;;;;;;2.30;1.10;;;;;;;23.12;51.32;100501.48;130401;1268;107730;-72
2022/07/24 12:59:01;;;;;;;2.30;1.20;;;;;;;23.12;51.64;100503.95;130543;1268;109804;-72
2022/07/24 13:02:08;;;;;;;1.90;1.10;;;;;;;23.06;51.91;100504.88;130921;1267;108197;-71
2022/07/24 13:05:14;;;;;;;1.30;1.10;;;;;;;23.14;52.15;100496.98;130438;1268;108854;-70
2022/07/24 13:08:20;;;;;;;2.20;1.00;;;;;;;23.38;51.76;100494.99;130328;1268;108752;-72
2022/07/24 13:11:25;;;;;;;1.50;1.10;;;;;;;23.35;51.32;100503.17;130542;1268;108722;-70
2022/07/24 13:14:31;;;;;;;1.60;1.10;;;;;;;23.44;51.49;100499.39;130153;1268;110517;-71
2022/07/24 13:17:36;;;;;;;1.10;1.00;;;;;;;23.43;50.76;100498.91;130359;1267;108786;-72
2022/07/24 13:20:42;;;;;;;1.60;1.10;;;;;;;23.39;51.35;100494.77;130176;1268;108925;-70
2022/07/24 13:23:48;;;;;;;1.50;1.10;;;;;;;23.25;50.73;100498.65;130309;1268;110067;-72
2022/07/24 13:26:54;;;;;;;2.30;1.10;;;;;;;23.21;51.16;100497.16;130068;1268;108542;-71
2022/07/24 13:30:00;;;;;;;1.20;1.00;;;;;;;23.22;50.94;100491.55;130124;1268;108752;-72
2022/07/24 13:33:06;;;;;;;1.50;1.10;;;;;;;23.23;51.11;100500.51;130618;1266;109320;-69
2022/07/24 13:36:19;;;;;;;1.40;1.00;;;;;;;23.22;50.36;100499.88;130420;1268;108494;-70
2022/07/24 13:39:24;;;;;;;2.30;1.00;;;;;;;23.24;50.87;100495.35;130369;1267;108761;-71
2022/07/24 13:42:31;;;;;;;1.30;1.10;;;;;;;23.21;51.34;100501.19;130748;1268;109196;-71
2022/07/24 13:45:36;;;;;;;1.40;1.10;;;;;;;23.07;51.03;100493.16;130457;1268;108796;-70
2022/07/24 13:48:42;;;;;;;1.40;1.10;;;;;;;23.05;51.65;100485.95;130492;1267;108281;-71
2022/07/24 13:51:48;;;;;;;2.40;1.20;;;;;;;23.22;51.81;100484.03;130510;1267;109087;-71
2022/07/24 13:54:53;;;;;;;2.40;1.10;;;;;;;23.32;51.51;100487.72;130261;1267;109452;-70
2022/07/24 13:57:59;;;;;;;1.90;0.90;;;;;;;23.31;50.64;100486.51;129947;1270;108863;-69
2022/07/24 14:01:07;;;;;;;2.20;1.20;;;;;;;23.33;50.19;100482.80;130274;1268;108737;-71
2022/07/24 14:04:15;;;;;;;2.10;1.00;;;;;;;23.42;50.80;100480.02;130081;1268;108781;-71
2022/07/24 14:07:21;;;;;;;2.30;1.10;;;;;;;23.31;50.67;100479.86;130163;1268;108912;-73